sensor_id;sensor_type;location;lat;lon;timestamp;temperature;humidity
22779;DHT22;11556;51.194;3.800;2024-01-30T00:01:13;12.40;99.90
22779;DHT22;11556;51.194;3.800;2024-01-30T00:03:39;12.50;99.90
22779;DHT22;11556;51.194;3.800;2024-01-30T00:06:04;12.50;99.90
22779;DHT22;11556;51.194;3.800;2024-01-30T00:08:30;12.50;99.90
22779;DHT22;11556;51.194;3.800;2024-01-30T00:10:56;12.60;99.90
22779;DHT22;11556;51.194;3.800;2024-01-30T00:13:21;12.50;99.90
22779;DHT22;11556;51.194;3.800;2024-01-30T00:15:48;12.50;99.90
22779;DHT22;11556;51.194;3.800;2024-01-30T00:18:14;12.50;99.90
22779;DHT22;11556;51.194;3.800;2024-01-30T00:20:40;12.50;99.90
22779;DHT22;11556;51.194;3.800;2024-01-30T00:23:06;12.50;99.90
22779;DHT22;11556;51.194;3.800;2024-01-30T00:25:32;12.40;99.90
22779;DHT22;11556;51.194;3.800;2024-01-30T00:27:58;12.40;99.90
22779;DHT22;11556;51.194;3.800;2024-01-30T00:30:24;12.40;99.90
22779;DHT22;11556;51.194;3.800;2024-01-30T00:32:50;12.40;99.90
22779;DHT22;11556;51.194;3.800;2024-01-30T00:35:16;12.40;99.90
22779;DHT22;11556;51.194;3.800;2024-01-30T00:37:41;12.40;99.90
22779;DHT22;11556;51.194;3.800;2024-01-30T00:40:07;12.40;99.90
22779;DHT22;11556;51.194;3.800;2024-01-30T00:42:35;12.40;99.90
22779;DHT22;11556;51.194;3.800;2024-01-30T00:45:02;12.30;99.90
22779;DHT22;11556;51.194;3.800;2024-01-30T00:47:27;12.20;99.90
22779;DHT22;11556;51.194;3.800;2024-01-30T00:49:54;12.20;99.90
22779;DHT22;11556;51.194;3.800;2024-01-30T00:52:20;12.30;99.90
22779;DHT22;11556;51.194;3.800;2024-01-30T00:54:45;12.30;99.90
22779;DHT22;11556;51.194;3.800;2024-01-30T00:57:11;12.30;99.90
22779;DHT22;11556;51.194;3.800;2024-01-30T00:59:37;12.40;99.90
22779;DHT22;11556;51.194;3.800;2024-01-30T01:02:03;12.40;99.90
22779;DHT22;11556;51.194;3.800;2024-01-30T01:04:29;12.30;99.90
22779;DHT22;11556;51.194;3.800;2024-01-30T01:06:55;12.20;99.90
22779;DHT22;11556;51.194;3.800;2024-01-30T01:09:20;12.30;99.90
22779;DHT22;11556;51.194;3.800;2024-01-30T01:11:46;12.30;99.90
22779;DHT22;11556;51.194;3.800;2024-01-30T01:14:12;12.40;99.90
22779;DHT22;11556;51.194;3.800;2024-01-30T01:16:37;12.50;99.90
22779;DHT22;11556;51.194;3.800;2024-01-30T01:19:03;12.40;99.90
22779;DHT22;11556;51.194;3.800;2024-01-30T01:21:28;12.50;99.90
22779;DHT22;11556;51.194;3.800;2024-01-30T01:23:54;12.40;99.90
22779;DHT22;11556;51.194;3.800;2024-01-30T01:26:20;12.30;99.90
22779;DHT22;11556;51.194;3.800;2024-01-30T01:28:46;12.40;99.90
22779;DHT22;11556;51.194;3.800;2024-01-30T01:31:12;12.30;99.90
22779;DHT22;11556;51.194;3.800;2024-01-30T01:33:38;12.30;99.90
22779;DHT22;11556;51.194;3.800;2024-01-30T01:36:03;12.30;99.90
22779;DHT22;11556;51.194;3.800;2024-01-30T01:38:29;12.40;99.90
22779;DHT22;11556;51.194;3.800;2024-01-30T01:40:55;12.50;99.90
22779;DHT22;11556;51.194;3.800;2024-01-30T01:43:21;12.40;99.90
22779;DHT22;11556;51.194;3.800;2024-01-30T01:45:46;12.40;99.90
22779;DHT22;11556;51.194;3.800;2024-01-30T01:48:12;12.40;99.90
22779;DHT22;11556;51.194;3.800;2024-01-30T01:50:39;12.40;99.90
22779;DHT22;11556;51.194;3.800;2024-01-30T01:53:07;12.30;99.90
22779;DHT22;11556;51.194;3.800;2024-01-30T01:55:34;12.30;99.90
22779;DHT22;11556;51.194;3.800;2024-01-30T01:58:00;12.30;99.90
22779;DHT22;11556;51.194;3.800;2024-01-30T02:00:26;12.30;99.90
22779;DHT22;11556;51.194;3.800;2024-01-30T02:02:53;12.30;99.90
22779;DHT22;11556;51.194;3.800;2024-01-30T02:05:20;12.40;99.90
22779;DHT22;11556;51.194;3.800;2024-01-30T02:07:46;12.40;99.90
22779;DHT22;11556;51.194;3.800;2024-01-30T02:10:12;12.40;99.90
22779;DHT22;11556;51.194;3.800;2024-01-30T02:12:37;12.40;99.90
22779;DHT22;11556;51.194;3.800;2024-01-30T02:15:04;12.30;99.90
22779;DHT22;11556;51.194;3.800;2024-01-30T02:17:30;12.30;99.90
22779;DHT22;11556;51.194;3.800;2024-01-30T02:19:56;12.40;99.90
22779;DHT22;11556;51.194;3.800;2024-01-30T02:22:22;12.30;99.90
22779;DHT22;11556;51.194;3.800;2024-01-30T02:24:49;12.30;99.90
22779;DHT22;11556;51.194;3.800;2024-01-30T02:27:15;12.50;99.90
22779;DHT22;11556;51.194;3.800;2024-01-30T02:29:42;12.50;99.90
22779;DHT22;11556;51.194;3.800;2024-01-30T02:32:07;12.50;99.90
22779;DHT22;11556;51.194;3.800;2024-01-30T02:34:33;12.50;99.90
22779;DHT22;11556;51.194;3.800;2024-01-30T02:36:59;12.50;99.90
22779;DHT22;11556;51.194;3.800;2024-01-30T02:39:25;12.50;99.90
22779;DHT22;11556;51.194;3.800;2024-01-30T02:41:50;12.50;99.90
22779;DHT22;11556;51.194;3.800;2024-01-30T02:44:16;12.50;99.90
22779;DHT22;11556;51.194;3.800;2024-01-30T02:46:42;12.60;99.90
22779;DHT22;11556;51.194;3.800;2024-01-30T02:49:07;12.60;99.90
22779;DHT22;11556;51.194;3.800;2024-01-30T02:51:33;12.50;99.90
22779;DHT22;11556;51.194;3.800;2024-01-30T02:53:59;12.40;99.90
22779;DHT22;11556;51.194;3.800;2024-01-30T02:56:24;12.50;99.90
22779;DHT22;11556;51.194;3.800;2024-01-30T02:58:50;12.50;99.90
22779;DHT22;11556;51.194;3.800;2024-01-30T03:01:16;12.60;99.90
22779;DHT22;11556;51.194;3.800;2024-01-30T03:03:41;12.60;99.90
22779;DHT22;11556;51.194;3.800;2024-01-30T03:06:08;12.50;99.90
22779;DHT22;11556;51.194;3.800;2024-01-30T03:08:35;12.60;99.90
22779;DHT22;11556;51.194;3.800;2024-01-30T03:11:02;12.60;99.90
22779;DHT22;11556;51.194;3.800;2024-01-30T03:13:27;12.50;99.90
22779;DHT22;11556;51.194;3.800;2024-01-30T03:15:53;12.50;99.90
22779;DHT22;11556;51.194;3.800;2024-01-30T03:18:20;12.40;99.90
22779;DHT22;11556;51.194;3.800;2024-01-30T03:20:45;12.50;99.90
22779;DHT22;11556;51.194;3.800;2024-01-30T03:23:11;12.50;99.90
22779;DHT22;11556;51.194;3.800;2024-01-30T03:25:37;12.60;99.90
22779;DHT22;11556;51.194;3.800;2024-01-30T03:28:02;12.50;99.90
22779;DHT22;11556;51.194;3.800;2024-01-30T03:30:28;12.50;99.90
22779;DHT22;11556;51.194;3.800;2024-01-30T03:32:54;12.40;99.90
22779;DHT22;11556;51.194;3.800;2024-01-30T03:35:19;12.40;99.90
22779;DHT22;11556;51.194;3.800;2024-01-30T03:37:45;12.40;99.90
22779;DHT22;11556;51.194;3.800;2024-01-30T03:40:11;12.40;99.90
22779;DHT22;11556;51.194;3.800;2024-01-30T03:42:37;12.40;99.90
22779;DHT22;11556;51.194;3.800;2024-01-30T03:45:02;12.30;99.90
22779;DHT22;11556;51.194;3.800;2024-01-30T03:47:28;12.40;99.90
22779;DHT22;11556;51.194;3.800;2024-01-30T03:49:54;12.40;99.90
22779;DHT22;11556;51.194;3.800;2024-01-30T03:52:19;12.40;99.90
22779;DHT22;11556;51.194;3.800;2024-01-30T03:54:45;12.30;99.90
22779;DHT22;11556;51.194;3.800;2024-01-30T03:57:11;12.20;99.90
22779;DHT22;11556;51.194;3.800;2024-01-30T03:59:37;12.20;99.90
22779;DHT22;11556;51.194;3.800;2024-01-30T04:02:03;12.10;99.90
22779;DHT22;11556;51.194;3.800;2024-01-30T04:04:29;12.10;99.90
22779;DHT22;11556;51.194;3.800;2024-01-30T04:06:55;12.10;99.90
22779;DHT22;11556;51.194;3.800;2024-01-30T04:09:20;12.10;99.90
22779;DHT22;11556;51.194;3.800;2024-01-30T04:11:46;12.10;99.90
22779;DHT22;11556;51.194;3.800;2024-01-30T04:14:12;12.00;99.90
22779;DHT22;11556;51.194;3.800;2024-01-30T04:16:37;12.00;99.90
22779;DHT22;11556;51.194;3.800;2024-01-30T04:19:03;11.90;99.90
22779;DHT22;11556;51.194;3.800;2024-01-30T04:21:28;11.90;99.90
22779;DHT22;11556;51.194;3.800;2024-01-30T04:23:54;11.90;99.90
22779;DHT22;11556;51.194;3.800;2024-01-30T04:26:20;12.00;99.90
22779;DHT22;11556;51.194;3.800;2024-01-30T04:28:45;11.90;99.90
22779;DHT22;11556;51.194;3.800;2024-01-30T04:31:11;11.90;99.90
22779;DHT22;11556;51.194;3.800;2024-01-30T04:33:37;11.90;99.90
22779;DHT22;11556;51.194;3.800;2024-01-30T04:36:07;11.90;99.90
22779;DHT22;11556;51.194;3.800;2024-01-30T04:38:34;11.90;99.90
22779;DHT22;11556;51.194;3.800;2024-01-30T04:40:59;11.90;99.90
22779;DHT22;11556;51.194;3.800;2024-01-30T04:43:25;12.00;99.90
22779;DHT22;11556;51.194;3.800;2024-01-30T04:45:51;12.10;99.90
22779;DHT22;11556;51.194;3.800;2024-01-30T04:48:18;12.20;99.90
22779;DHT22;11556;51.194;3.800;2024-01-30T04:50:43;12.20;99.90
22779;DHT22;11556;51.194;3.800;2024-01-30T04:53:09;12.20;99.90
22779;DHT22;11556;51.194;3.800;2024-01-30T04:55:35;12.20;99.90
22779;DHT22;11556;51.194;3.800;2024-01-30T04:58:01;12.20;99.90
22779;DHT22;11556;51.194;3.800;2024-01-30T05:00:27;12.20;99.90
22779;DHT22;11556;51.194;3.800;2024-01-30T05:02:55;12.20;99.90
22779;DHT22;11556;51.194;3.800;2024-01-30T05:05:20;12.20;99.90
22779;DHT22;11556;51.194;3.800;2024-01-30T05:07:47;12.20;99.90
22779;DHT22;11556;51.194;3.800;2024-01-30T05:10:13;12.10;99.90
22779;DHT22;11556;51.194;3.800;2024-01-30T05:12:39;12.10;99.90
22779;DHT22;11556;51.194;3.800;2024-01-30T05:15:05;12.10;99.90
22779;DHT22;11556;51.194;3.800;2024-01-30T05:17:31;12.10;99.90
22779;DHT22;11556;51.194;3.800;2024-01-30T05:19:57;12.10;99.90
22779;DHT22;11556;51.194;3.800;2024-01-30T05:22:23;12.10;99.90
22779;DHT22;11556;51.194;3.800;2024-01-30T05:24:49;12.20;99.90
22779;DHT22;11556;51.194;3.800;2024-01-30T05:27:14;12.20;99.90
22779;DHT22;11556;51.194;3.800;2024-01-30T05:29:40;12.10;99.90
22779;DHT22;11556;51.194;3.800;2024-01-30T05:32:06;12.20;99.90
22779;DHT22;11556;51.194;3.800;2024-01-30T05:34:32;12.10;99.90
22779;DHT22;11556;51.194;3.800;2024-01-30T05:36:58;12.10;99.90
22779;DHT22;11556;51.194;3.800;2024-01-30T05:39:24;12.10;99.90
22779;DHT22;11556;51.194;3.800;2024-01-30T05:41:49;12.10;99.90
22779;DHT22;11556;51.194;3.800;2024-01-30T05:44:15;12.10;99.90
22779;DHT22;11556;51.194;3.800;2024-01-30T05:46:41;12.30;99.90
22779;DHT22;11556;51.194;3.800;2024-01-30T05:49:06;12.30;99.90
22779;DHT22;11556;51.194;3.800;2024-01-30T05:51:32;12.40;99.90
22779;DHT22;11556;51.194;3.800;2024-01-30T05:53:57;12.40;99.90
22779;DHT22;11556;51.194;3.800;2024-01-30T05:56:23;12.40;99.90
22779;DHT22;11556;51.194;3.800;2024-01-30T05:58:49;12.40;99.90
22779;DHT22;11556;51.194;3.800;2024-01-30T06:01:16;12.50;99.90
22779;DHT22;11556;51.194;3.800;2024-01-30T06:03:41;12.50;99.90
22779;DHT22;11556;51.194;3.800;2024-01-30T06:06:09;12.60;99.90
22779;DHT22;11556;51.194;3.800;2024-01-30T06:08:34;12.50;99.90
22779;DHT22;11556;51.194;3.800;2024-01-30T06:11:00;12.60;99.90
22779;DHT22;11556;51.194;3.800;2024-01-30T06:13:26;12.60;99.90
22779;DHT22;11556;51.194;3.800;2024-01-30T06:15:52;12.50;99.90
22779;DHT22;11556;51.194;3.800;2024-01-30T06:18:18;12.60;99.90
22779;DHT22;11556;51.194;3.800;2024-01-30T06:20:44;12.50;99.90
22779;DHT22;11556;51.194;3.800;2024-01-30T06:23:09;12.50;99.90
22779;DHT22;11556;51.194;3.800;2024-01-30T06:25:35;12.50;99.90
22779;DHT22;11556;51.194;3.800;2024-01-30T06:28:01;12.40;99.90
22779;DHT22;11556;51.194;3.800;2024-01-30T06:30:26;12.50;99.90
22779;DHT22;11556;51.194;3.800;2024-01-30T06:32:52;12.50;99.90
22779;DHT22;11556;51.194;3.800;2024-01-30T06:35:18;12.40;99.90
22779;DHT22;11556;51.194;3.800;2024-01-30T06:37:43;12.40;99.90
22779;DHT22;11556;51.194;3.800;2024-01-30T06:40:09;12.60;99.90
22779;DHT22;11556;51.194;3.800;2024-01-30T06:42:35;12.70;99.90
22779;DHT22;11556;51.194;3.800;2024-01-30T06:45:01;12.80;99.90
22779;DHT22;11556;51.194;3.800;2024-01-30T06:47:26;12.80;99.90
22779;DHT22;11556;51.194;3.800;2024-01-30T06:49:52;12.90;99.90
22779;DHT22;11556;51.194;3.800;2024-01-30T06:52:18;12.90;99.90
22779;DHT22;11556;51.194;3.800;2024-01-30T06:54:43;12.90;99.90
22779;DHT22;11556;51.194;3.800;2024-01-30T06:57:09;12.90;99.90
22779;DHT22;11556;51.194;3.800;2024-01-30T06:59:38;12.90;99.90
22779;DHT22;11556;51.194;3.800;2024-01-30T07:02:10;12.90;99.90
22779;DHT22;11556;51.194;3.800;2024-01-30T07:04:36;12.90;99.90
22779;DHT22;11556;51.194;3.800;2024-01-30T07:07:03;12.70;99.90
22779;DHT22;11556;51.194;3.800;2024-01-30T07:09:30;12.70;99.90
22779;DHT22;11556;51.194;3.800;2024-01-30T07:11:56;12.70;99.90
22779;DHT22;11556;51.194;3.800;2024-01-30T07:14:24;12.70;99.90
22779;DHT22;11556;51.194;3.800;2024-01-30T07:16:49;12.70;99.90
22779;DHT22;11556;51.194;3.800;2024-01-30T07:19:17;12.70;99.90
22779;DHT22;11556;51.194;3.800;2024-01-30T07:21:42;12.60;99.90
22779;DHT22;11556;51.194;3.800;2024-01-30T07:24:08;12.70;99.90
22779;DHT22;11556;51.194;3.800;2024-01-30T07:26:33;12.80;99.90
22779;DHT22;11556;51.194;3.800;2024-01-30T07:29:01;12.80;99.90
22779;DHT22;11556;51.194;3.800;2024-01-30T07:31:26;12.80;99.90
22779;DHT22;11556;51.194;3.800;2024-01-30T07:33:52;12.70;99.90
22779;DHT22;11556;51.194;3.800;2024-01-30T07:36:18;12.60;99.90
22779;DHT22;11556;51.194;3.800;2024-01-30T07:38:44;12.70;99.90
22779;DHT22;11556;51.194;3.800;2024-01-30T07:41:09;12.70;99.90
22779;DHT22;11556;51.194;3.800;2024-01-30T07:43:35;12.70;99.90
22779;DHT22;11556;51.194;3.800;2024-01-30T07:46:01;12.70;99.90
22779;DHT22;11556;51.194;3.800;2024-01-30T07:48:28;12.70;99.90
22779;DHT22;11556;51.194;3.800;2024-01-30T07:50:53;12.60;99.90
22779;DHT22;11556;51.194;3.800;2024-01-30T07:53:19;12.50;99.90
22779;DHT22;11556;51.194;3.800;2024-01-30T07:55:45;12.70;99.90
22779;DHT22;11556;51.194;3.800;2024-01-30T07:58:12;12.70;99.90
22779;DHT22;11556;51.194;3.800;2024-01-30T08:00:38;12.60;99.90
22779;DHT22;11556;51.194;3.800;2024-01-30T08:03:04;12.60;99.90
22779;DHT22;11556;51.194;3.800;2024-01-30T08:05:30;12.60;99.90
22779;DHT22;11556;51.194;3.800;2024-01-30T08:07:56;12.60;99.90
22779;DHT22;11556;51.194;3.800;2024-01-30T08:10:22;12.60;99.90
22779;DHT22;11556;51.194;3.800;2024-01-30T08:12:48;12.60;99.90
22779;DHT22;11556;51.194;3.800;2024-01-30T08:15:14;12.80;99.90
22779;DHT22;11556;51.194;3.800;2024-01-30T08:17:40;12.70;99.90
22779;DHT22;11556;51.194;3.800;2024-01-30T08:20:06;12.70;99.90
22779;DHT22;11556;51.194;3.800;2024-01-30T08:22:33;12.70;99.90
22779;DHT22;11556;51.194;3.800;2024-01-30T08:24:59;12.70;99.90
22779;DHT22;11556;51.194;3.800;2024-01-30T08:27:25;12.60;99.90
22779;DHT22;11556;51.194;3.800;2024-01-30T08:29:50;12.60;99.90
22779;DHT22;11556;51.194;3.800;2024-01-30T08:32:16;12.50;99.90
22779;DHT22;11556;51.194;3.800;2024-01-30T08:34:42;12.50;99.90
22779;DHT22;11556;51.194;3.800;2024-01-30T08:37:07;12.60;99.90
22779;DHT22;11556;51.194;3.800;2024-01-30T08:39:33;12.70;99.90
22779;DHT22;11556;51.194;3.800;2024-01-30T08:41:59;12.60;99.90
22779;DHT22;11556;51.194;3.800;2024-01-30T08:44:25;12.60;99.90
22779;DHT22;11556;51.194;3.800;2024-01-30T08:46:50;12.60;99.90
22779;DHT22;11556;51.194;3.800;2024-01-30T08:49:16;12.60;99.90
22779;DHT22;11556;51.194;3.800;2024-01-30T08:51:43;12.70;99.90
22779;DHT22;11556;51.194;3.800;2024-01-30T08:54:08;12.70;99.90
22779;DHT22;11556;51.194;3.800;2024-01-30T08:56:34;12.60;99.90
22779;DHT22;11556;51.194;3.800;2024-01-30T08:59:00;12.60;99.90
22779;DHT22;11556;51.194;3.800;2024-01-30T09:01:25;12.60;99.90
22779;DHT22;11556;51.194;3.800;2024-01-30T09:03:52;12.60;99.90
22779;DHT22;11556;51.194;3.800;2024-01-30T09:06:17;12.80;99.90
22779;DHT22;11556;51.194;3.800;2024-01-30T09:08:43;12.80;99.90
22779;DHT22;11556;51.194;3.800;2024-01-30T09:11:09;12.70;99.90
22779;DHT22;11556;51.194;3.800;2024-01-30T09:13:36;12.70;99.90
22779;DHT22;11556;51.194;3.800;2024-01-30T09:16:01;12.80;99.90
22779;DHT22;11556;51.194;3.800;2024-01-30T09:18:27;12.70;99.90
22779;DHT22;11556;51.194;3.800;2024-01-30T09:20:53;12.60;99.90
22779;DHT22;11556;51.194;3.800;2024-01-30T09:23:18;12.60;99.90
22779;DHT22;11556;51.194;3.800;2024-01-30T09:25:45;12.70;99.90
22779;DHT22;11556;51.194;3.800;2024-01-30T09:28:10;12.80;99.90
22779;DHT22;11556;51.194;3.800;2024-01-30T09:30:36;12.90;99.90
22779;DHT22;11556;51.194;3.800;2024-01-30T09:33:02;13.00;99.90
22779;DHT22;11556;51.194;3.800;2024-01-30T09:35:28;13.20;99.90
22779;DHT22;11556;51.194;3.800;2024-01-30T09:37:55;13.30;99.90
22779;DHT22;11556;51.194;3.800;2024-01-30T09:40:21;13.50;99.90
22779;DHT22;11556;51.194;3.800;2024-01-30T09:42:47;13.30;99.90
22779;DHT22;11556;51.194;3.800;2024-01-30T09:45:17;13.10;99.90
22779;DHT22;11556;51.194;3.800;2024-01-30T09:47:44;13.10;99.90
22779;DHT22;11556;51.194;3.800;2024-01-30T09:50:12;13.10;99.90
22779;DHT22;11556;51.194;3.800;2024-01-30T09:52:38;13.00;99.90
22779;DHT22;11556;51.194;3.800;2024-01-30T09:55:05;12.90;99.90
22779;DHT22;11556;51.194;3.800;2024-01-30T09:57:31;12.90;99.90
22779;DHT22;11556;51.194;3.800;2024-01-30T09:59:57;12.80;99.90
22779;DHT22;11556;51.194;3.800;2024-01-30T10:02:23;12.80;99.90
22779;DHT22;11556;51.194;3.800;2024-01-30T10:04:49;12.60;99.90
22779;DHT22;11556;51.194;3.800;2024-01-30T10:07:16;12.50;99.90
22779;DHT22;11556;51.194;3.800;2024-01-30T10:09:41;12.50;99.90
22779;DHT22;11556;51.194;3.800;2024-01-30T10:12:10;12.50;99.90
22779;DHT22;11556;51.194;3.800;2024-01-30T10:14:40;12.50;99.90
22779;DHT22;11556;51.194;3.800;2024-01-30T10:17:10;12.50;99.90
22779;DHT22;11556;51.194;3.800;2024-01-30T10:19:40;12.60;99.90
22779;DHT22;11556;51.194;3.800;2024-01-30T10:22:06;13.10;99.90
22779;DHT22;11556;51.194;3.800;2024-01-30T10:24:33;13.60;99.90
22779;DHT22;11556;51.194;3.800;2024-01-30T10:26:59;13.80;99.90
22779;DHT22;11556;51.194;3.800;2024-01-30T10:29:25;13.70;99.90
22779;DHT22;11556;51.194;3.800;2024-01-30T10:32:04;14.30;99.90
22779;DHT22;11556;51.194;3.800;2024-01-30T10:34:30;14.70;99.90
22779;DHT22;11556;51.194;3.800;2024-01-30T10:37:16;14.80;99.90
22779;DHT22;11556;51.194;3.800;2024-01-30T10:39:44;14.70;99.90
22779;DHT22;11556;51.194;3.800;2024-01-30T10:42:15;14.00;99.90
22779;DHT22;11556;51.194;3.800;2024-01-30T10:44:52;13.40;99.90
22779;DHT22;11556;51.194;3.800;2024-01-30T10:47:26;13.10;99.90
22779;DHT22;11556;51.194;3.800;2024-01-30T10:49:52;13.10;99.90
22779;DHT22;11556;51.194;3.800;2024-01-30T10:52:20;13.20;99.90
22779;DHT22;11556;51.194;3.800;2024-01-30T10:54:46;13.30;99.90
22779;DHT22;11556;51.194;3.800;2024-01-30T10:57:13;13.30;99.90
22779;DHT22;11556;51.194;3.800;2024-01-30T10:59:41;13.50;99.90
22779;DHT22;11556;51.194;3.800;2024-01-30T11:02:08;13.50;99.90
22779;DHT22;11556;51.194;3.800;2024-01-30T11:04:40;13.20;99.90
22779;DHT22;11556;51.194;3.800;2024-01-30T11:07:19;13.20;99.90
22779;DHT22;11556;51.194;3.800;2024-01-30T11:09:53;13.30;99.90
22779;DHT22;11556;51.194;3.800;2024-01-30T11:12:25;13.10;99.90
22779;DHT22;11556;51.194;3.800;2024-01-30T11:15:08;12.90;99.90
22779;DHT22;11556;51.194;3.800;2024-01-30T11:22:47;12.90;99.90
22779;DHT22;11556;51.194;3.800;2024-01-30T11:25:17;12.90;99.90
22779;DHT22;11556;51.194;3.800;2024-01-30T11:27:45;12.70;99.90
22779;DHT22;11556;51.194;3.800;2024-01-30T11:30:24;12.40;99.90
22779;DHT22;11556;51.194;3.800;2024-01-30T11:33:06;12.30;99.90
22779;DHT22;11556;51.194;3.800;2024-01-30T11:35:33;12.20;99.90
22779;DHT22;11556;51.194;3.800;2024-01-30T11:38:00;12.30;99.90
22779;DHT22;11556;51.194;3.800;2024-01-30T11:40:29;12.30;99.90
22779;DHT22;11556;51.194;3.800;2024-01-30T11:42:56;12.30;99.90
22779;DHT22;11556;51.194;3.800;2024-01-30T11:45:23;12.40;99.90
22779;DHT22;11556;51.194;3.800;2024-01-30T11:47:49;12.40;99.90
22779;DHT22;11556;51.194;3.800;2024-01-30T11:50:15;12.40;99.90
22779;DHT22;11556;51.194;3.800;2024-01-30T11:52:42;12.30;99.90
22779;DHT22;11556;51.194;3.800;2024-01-30T11:55:09;12.20;99.90
22779;DHT22;11556;51.194;3.800;2024-01-30T11:57:35;12.30;99.90
22779;DHT22;11556;51.194;3.800;2024-01-30T12:00:05;12.10;99.90
22779;DHT22;11556;51.194;3.800;2024-01-30T12:02:40;12.10;99.90
22779;DHT22;11556;51.194;3.800;2024-01-30T12:05:06;12.20;99.90
22779;DHT22;11556;51.194;3.800;2024-01-30T12:07:32;12.10;99.90
22779;DHT22;11556;51.194;3.800;2024-01-30T12:09:58;12.10;99.90
22779;DHT22;11556;51.194;3.800;2024-01-30T12:12:25;12.00;99.90
22779;DHT22;11556;51.194;3.800;2024-01-30T12:14:51;12.00;99.90
22779;DHT22;11556;51.194;3.800;2024-01-30T12:17:29;11.90;99.90
22779;DHT22;11556;51.194;3.800;2024-01-30T12:20:11;11.90;99.90
22779;DHT22;11556;51.194;3.800;2024-01-30T12:22:38;11.90;99.90
22779;DHT22;11556;51.194;3.800;2024-01-30T12:25:24;11.90;99.90
22779;DHT22;11556;51.194;3.800;2024-01-30T12:27:50;11.90;99.90
22779;DHT22;11556;51.194;3.800;2024-01-30T12:30:17;11.90;99.90
22779;DHT22;11556;51.194;3.800;2024-01-30T12:32:44;11.90;99.90
22779;DHT22;11556;51.194;3.800;2024-01-30T12:35:10;11.90;99.90
22779;DHT22;11556;51.194;3.800;2024-01-30T12:37:37;11.80;99.90
22779;DHT22;11556;51.194;3.800;2024-01-30T12:40:03;11.70;99.90
22779;DHT22;11556;51.194;3.800;2024-01-30T12:42:29;11.80;99.90
22779;DHT22;11556;51.194;3.800;2024-01-30T12:44:57;11.90;99.90
22779;DHT22;11556;51.194;3.800;2024-01-30T12:47:24;11.90;99.90
22779;DHT22;11556;51.194;3.800;2024-01-30T12:49:50;11.80;99.90
22779;DHT22;11556;51.194;3.800;2024-01-30T12:52:20;11.70;99.90
22779;DHT22;11556;51.194;3.800;2024-01-30T12:54:47;11.70;99.90
22779;DHT22;11556;51.194;3.800;2024-01-30T12:57:12;11.60;99.90
22779;DHT22;11556;51.194;3.800;2024-01-30T12:59:38;11.60;99.90
22779;DHT22;11556;51.194;3.800;2024-01-30T13:02:04;11.50;99.90
22779;DHT22;11556;51.194;3.800;2024-01-30T13:04:30;11.40;99.90
22779;DHT22;11556;51.194;3.800;2024-01-30T13:06:56;11.50;99.90
22779;DHT22;11556;51.194;3.800;2024-01-30T13:09:23;11.60;99.90
22779;DHT22;11556;51.194;3.800;2024-01-30T13:11:49;11.50;99.90
22779;DHT22;11556;51.194;3.800;2024-01-30T13:14:15;11.50;99.90
22779;DHT22;11556;51.194;3.800;2024-01-30T13:16:41;11.50;99.90
22779;DHT22;11556;51.194;3.800;2024-01-30T13:19:07;11.50;99.90
22779;DHT22;11556;51.194;3.800;2024-01-30T13:21:32;11.50;99.90
22779;DHT22;11556;51.194;3.800;2024-01-30T13:23:58;11.50;99.90
22779;DHT22;11556;51.194;3.800;2024-01-30T13:26:24;11.50;99.90
22779;DHT22;11556;51.194;3.800;2024-01-30T13:28:49;11.40;99.90
22779;DHT22;11556;51.194;3.800;2024-01-30T13:31:16;11.30;99.90
22779;DHT22;11556;51.194;3.800;2024-01-30T13:33:42;11.30;99.90
22779;DHT22;11556;51.194;3.800;2024-01-30T13:36:08;11.40;99.90
22779;DHT22;11556;51.194;3.800;2024-01-30T13:38:35;11.40;99.90
22779;DHT22;11556;51.194;3.800;2024-01-30T13:41:01;11.50;99.90
22779;DHT22;11556;51.194;3.800;2024-01-30T13:43:26;11.60;99.90
22779;DHT22;11556;51.194;3.800;2024-01-30T13:45:52;11.50;99.90
22779;DHT22;11556;51.194;3.800;2024-01-30T13:48:18;11.50;99.90
22779;DHT22;11556;51.194;3.800;2024-01-30T13:50:45;11.50;99.90
22779;DHT22;11556;51.194;3.800;2024-01-30T13:53:11;11.30;99.90
22779;DHT22;11556;51.194;3.800;2024-01-30T13:55:37;11.20;99.90
22779;DHT22;11556;51.194;3.800;2024-01-30T13:58:05;11.30;99.90
22779;DHT22;11556;51.194;3.800;2024-01-30T14:00:31;11.30;99.90
22779;DHT22;11556;51.194;3.800;2024-01-30T14:02:56;11.40;99.90
22779;DHT22;11556;51.194;3.800;2024-01-30T14:05:24;11.50;99.90
22779;DHT22;11556;51.194;3.800;2024-01-30T14:07:51;11.40;99.90
22779;DHT22;11556;51.194;3.800;2024-01-30T14:10:17;11.50;99.90
22779;DHT22;11556;51.194;3.800;2024-01-30T14:12:43;11.50;99.90
22779;DHT22;11556;51.194;3.800;2024-01-30T14:15:10;11.50;99.90
22779;DHT22;11556;51.194;3.800;2024-01-30T14:17:36;11.50;99.90
22779;DHT22;11556;51.194;3.800;2024-01-30T14:20:05;11.50;99.90
22779;DHT22;11556;51.194;3.800;2024-01-30T14:22:33;11.40;99.90
22779;DHT22;11556;51.194;3.800;2024-01-30T14:24:59;11.30;99.90
22779;DHT22;11556;51.194;3.800;2024-01-30T14:27:24;11.30;99.90
22779;DHT22;11556;51.194;3.800;2024-01-30T14:29:50;11.30;99.90
22779;DHT22;11556;51.194;3.800;2024-01-30T14:32:16;11.20;99.90
22779;DHT22;11556;51.194;3.800;2024-01-30T14:34:41;11.10;99.90
22779;DHT22;11556;51.194;3.800;2024-01-30T14:37:07;11.10;99.90
22779;DHT22;11556;51.194;3.800;2024-01-30T14:39:33;11.10;99.90
22779;DHT22;11556;51.194;3.800;2024-01-30T14:41:59;11.00;99.90
22779;DHT22;11556;51.194;3.800;2024-01-30T14:44:25;11.00;99.90
22779;DHT22;11556;51.194;3.800;2024-01-30T14:46:51;11.00;99.90
22779;DHT22;11556;51.194;3.800;2024-01-30T14:49:17;11.10;99.90
22779;DHT22;11556;51.194;3.800;2024-01-30T14:51:42;11.00;99.90
22779;DHT22;11556;51.194;3.800;2024-01-30T14:54:08;11.00;99.90
22779;DHT22;11556;51.194;3.800;2024-01-30T14:56:34;11.00;99.90
22779;DHT22;11556;51.194;3.800;2024-01-30T14:59:00;11.10;99.90
22779;DHT22;11556;51.194;3.800;2024-01-30T15:01:26;11.20;99.90
22779;DHT22;11556;51.194;3.800;2024-01-30T15:03:52;11.20;99.90
22779;DHT22;11556;51.194;3.800;2024-01-30T15:06:18;11.10;99.90
22779;DHT22;11556;51.194;3.800;2024-01-30T15:08:44;11.10;99.90
22779;DHT22;11556;51.194;3.800;2024-01-30T15:11:10;11.10;99.90
22779;DHT22;11556;51.194;3.800;2024-01-30T15:13:36;11.10;99.90
22779;DHT22;11556;51.194;3.800;2024-01-30T15:16:02;11.00;99.90
22779;DHT22;11556;51.194;3.800;2024-01-30T15:18:30;11.10;99.90
22779;DHT22;11556;51.194;3.800;2024-01-30T15:20:56;11.10;99.90
22779;DHT22;11556;51.194;3.800;2024-01-30T15:23:22;11.10;99.90
22779;DHT22;11556;51.194;3.800;2024-01-30T15:25:48;11.10;99.90
22779;DHT22;11556;51.194;3.800;2024-01-30T15:28:13;11.10;99.90
22779;DHT22;11556;51.194;3.800;2024-01-30T15:30:40;11.20;99.90